Time;durP1;ratioP1;P1;durP2;ratioP2;P2;SDS_P1;SDS_P2;PMS_P1;PMS_P2;Temp;Humidity;BMP_temperature;BMP_pressure;BME280_temperature;BME280_humidity;BME280_pressure;Samples;Min_cycle;Max_cycle;Signal;HPM_P1;HPM_P2
2022/05/27 00:02:29;;;;;;;6.50;2.30;;;;;;;15.50;70.74;101901.16;5273884;28;20112;-74
2022/05/27 00:05:01;;;;;;;5.77;2.07;;;;;;;15.63;70.28;101916.19;5273419;28;20025;-73
2022/05/27 00:07:32;;;;;;;4.33;1.97;;;;;;;15.58;70.43;101914.72;5272925;28;20031;-73
2022/05/27 00:10:04;;;;;;;4.50;2.10;;;;;;;15.62;70.37;101899.53;5272824;28;20029;-73
2022/05/27 00:12:35;;;;;;;4.43;1.53;;;;;;;15.67;70.72;101929.13;5269898;28;20420;-73
2022/05/27 00:15:08;;;;;;;8.13;2.03;;;;;;;15.43;70.66;101876.13;5270901;28;20389;-74
2022/05/27 00:17:40;;;;;;;7.60;1.90;;;;;;;15.62;71.19;101923.31;5273612;28;20043;-74
2022/05/27 00:20:11;;;;;;;6.37;2.07;;;;;;;15.43;71.37;101895.41;5273766;28;20032;-74
2022/05/27 00:22:43;;;;;;;5.83;2.20;;;;;;;15.43;71.77;101890.13;5273559;28;20020;-74
2022/05/27 00:25:14;;;;;;;7.57;2.03;;;;;;;15.35;71.82;101876.59;5268155;28;20386;-73
2022/05/27 00:27:46;;;;;;;7.23;2.20;;;;;;;15.71;71.59;101920.03;5271702;28;20034;-74
2022/05/27 00:30:17;;;;;;;6.07;2.10;;;;;;;15.54;72.18;101917.63;5272711;28;20023;-75
2022/05/27 00:32:49;;;;;;;11.27;2.23;;;;;;;15.48;72.77;101918.91;5271587;28;20012;-75
2022/05/27 00:35:20;;;;;;;8.73;2.37;;;;;;;15.39;72.88;101908.91;5270511;28;20499;-75
2022/05/27 00:37:52;;;;;;;7.67;2.33;;;;;;;15.48;72.51;101914.44;5274543;28;20024;-73
2022/05/27 00:40:24;;;;;;;5.87;1.70;;;;;;;15.53;72.55;101916.81;5273565;28;20654;-74
2022/05/27 00:42:55;;;;;;;7.43;2.00;;;;;;;15.48;72.98;101908.34;5276254;28;20041;-74
2022/05/27 00:45:27;;;;;;;6.30;2.20;;;;;;;15.45;72.62;101901.44;5274613;28;20029;-74
2022/05/27 00:47:58;;;;;;;14.90;3.23;;;;;;;15.59;72.19;101908.47;5282971;28;20052;-73
2022/05/27 00:50:34;;;;;;;7.03;2.37;;;;;;;15.56;72.34;101911.34;5278604;28;20024;-74
2022/05/27 00:53:07;;;;;;;7.20;1.80;;;;;;;15.47;72.82;101904.84;5274212;28;20503;-74
2022/05/27 00:55:47;;;;;;;7.83;2.70;;;;;;;15.52;72.97;101912.47;5275051;28;20025;-74
2022/05/27 00:58:30;;;;;;;10.20;2.30;;;;;;;15.51;72.94;101904.66;5273411;28;20016;-73
2022/05/27 01:01:02;;;;;;;6.23;2.17;;;;;;;15.44;74.27;101907.69;5281543;28;20541;-74
2022/05/27 01:03:35;;;;;;;9.57;2.50;;;;;;;15.41;74.59;101892.03;5273697;28;20016;-74
2022/05/27 01:06:06;;;;;;;13.87;3.33;;;;;;;15.45;74.99;101897.94;5273934;28;20036;-74
2022/05/27 01:08:37;;;;;;;9.43;2.93;;;;;;;15.45;76.59;101908.50;5274176;28;20028;-74
2022/05/27 01:11:18;;;;;;;9.43;2.53;;;;;;;15.44;77.48;101901.56;5274071;28;20026;-74
2022/05/27 01:14:14;;;;;;;9.70;3.07;;;;;;;15.48;77.94;101903.88;5270561;28;20044;-74
2022/05/27 01:17:05;;;;;;;9.77;2.90;;;;;;;15.48;77.33;101901.25;5271253;28;20025;-74
2022/05/27 01:23:10;;;;;;;8.47;3.03;;;;;;;15.27;79.49;101900.84;5274475;28;20033;-74
2022/05/27 01:26:03;;;;;;;8.77;3.10;;;;;;;15.18;81.92;101902.28;5273110;28;21003;-73
2022/05/27 01:28:43;;;;;;;10.63;2.90;;;;;;;15.18;81.98;101904.06;5273282;28;20757;-73
2022/05/27 01:31:23;;;;;;;10.13;3.30;;;;;;;15.16;81.87;101909.44;5273930;28;20111;-74
2022/05/27 01:34:13;;;;;;;10.77;3.50;;;;;;;14.99;83.22;101892.84;5271061;28;20442;-74
2022/05/27 01:37:12;;;;;;;11.07;3.27;;;;;;;15.26;81.94;101890.34;5274805;28;20028;-74
2022/05/27 01:39:58;;;;;;;15.67;4.67;;;;;;;15.10;83.79;101899.25;5274640;28;20048;-73
2022/05/27 01:42:41;;;;;;;11.83;3.37;;;;;;;15.05;84.23;101896.03;5272964;28;20394;-74
2022/05/27 01:45:24;;;;;;;9.87;3.60;;;;;;;14.97;84.28;101886.84;5273992;28;20055;-74
2022/05/27 01:48:06;;;;;;;10.20;3.87;;;;;;;15.09;84.96;101892.28;5274087;28;20119;-74
2022/05/27 01:50:46;;;;;;;11.93;4.87;;;;;;;14.98;85.65;101895.56;5274176;28;20657;-74
2022/05/27 01:53:31;;;;;;;11.27;3.83;;;;;;;14.95;85.50;101899.28;5274617;28;20086;-74
2022/05/27 01:56:15;;;;;;;8.70;3.57;;;;;;;14.92;86.68;101894.19;5276376;28;20372;-74
2022/05/27 01:59:02;;;;;;;11.27;3.90;;;;;;;14.79;88.21;101880.88;5277717;28;20460;-74
2022/05/27 02:01:46;;;;;;;10.70;3.83;;;;;;;14.82;88.76;101887.78;5276779;28;20115;-74
2022/05/27 02:04:33;;;;;;;9.43;4.28;;;;;;;14.84;88.81;101894.66;5277515;28;20032;-74
2022/05/27 02:07:10;;;;;;;13.83;3.80;;;;;;;14.82;89.71;101893.06;5278334;28;20025;-74
2022/05/27 02:09:47;;;;;;;17.50;5.27;;;;;;;14.73;90.47;101897.91;5276931;28;20016;-74
2022/05/27 02:12:48;;;;;;;13.53;4.70;;;;;;;14.79;89.60;101888.78;5277421;28;20016;-74
2022/05/27 02:15:27;;;;;;;14.83;4.53;;;;;;;14.67;91.71;101892.16;5256863;28;20031;-75
2022/05/27 02:18:09;;;;;;;14.27;4.73;;;;;;;14.72;91.69;101901.50;5263502;28;20055;-74
2022/05/27 02:20:46;;;;;;;15.53;5.17;;;;;;;14.60;92.64;101886.41;5257643;28;20468;-75
2022/05/27 02:23:49;;;;;;;14.43;4.67;;;;;;;14.57;91.97;101894.50;5273327;28;20104;-75
2022/05/27 02:26:24;;;;;;;13.00;4.97;;;;;;;14.47;95.33;101895.06;5277454;28;20017;-75
2022/05/27 02:29:00;;;;;;;14.20;5.87;;;;;;;14.38;95.17;101877.16;5275573;28;20017;-75
2022/05/27 02:31:35;;;;;;;13.20;5.60;;;;;;;14.41;94.92;101892.78;5276390;28;20028;-74
2022/05/27 02:37:28;;;;;;;14.43;5.07;;;;;;;14.38;96.50;101887.72;5277511;28;20418;-74
2022/05/27 02:40:04;;;;;;;12.13;5.60;;;;;;;14.32;97.29;101882.78;5276816;28;20208;-74
2022/05/27 02:42:59;;;;;;;11.07;5.07;;;;;;;14.29;96.79;101865.38;5276533;28;20120;-74
2022/05/27 02:45:38;;;;;;;;;;;;;;;14.51;92.39;101883.41;5278283;28;20032;-74
2022/05/27 02:48:32;;;;;;;12.70;5.43;;;;;;;14.39;96.36;101873.59;5277041;28;19919;-74
2022/05/27 02:51:26;;;;;;;13.03;7.20;;;;;;;14.34;96.87;101867.75;5276919;28;20499;-74
2022/05/27 02:54:11;;;;;;;8.65;5.60;;;;;;;14.44;97.25;101881.19;5292506;28;20124;-74
2022/05/27 02:56:43;;;;;;;;;;;;;;;14.52;93.88;101889.53;5278501;28;20036;-74
2022/05/27 02:59:19;;;;;;;10.17;5.80;;;;;;;14.18;99.09;101871.28;5276402;28;19977;-74
2022/05/27 03:01:50;;;;;;;11.47;6.13;;;;;;;14.14;99.69;101882.94;5276841;28;20451;-74
2022/05/27 03:04:21;;;;;;;10.83;6.30;;;;;;;14.23;99.79;101877.13;5275281;28;20060;-74
2022/05/27 03:07:29;;;;;;;9.50;5.77;;;;;;;14.25;99.28;101871.75;5274598;28;20058;-74
2022/05/27 03:10:35;;;;;;;10.57;5.97;;;;;;;14.18;98.71;101860.75;5276188;28;20465;-76
2022/05/27 03:13:31;;;;;;;15.00;6.57;;;;;;;14.19;100.00;101866.88;5275515;28;20661;-75
2022/05/27 03:16:48;;;;;;;11.50;6.17;;;;;;;14.27;100.00;101867.25;5277107;28;20033;-75
2022/05/27 03:19:19;;;;;;;12.27;6.07;;;;;;;14.18;100.00;101871.28;5275961;28;20062;-75
2022/05/27 03:22:03;;;;;;;13.13;7.80;;;;;;;14.27;100.00;101876.03;5276883;28;20024;-75
2022/05/27 03:25:07;;;;;;;10.48;6.65;;;;;;;14.25;100.00;101875.25;5276110;28;20082;-75
2022/05/27 03:27:44;;;;;;;11.50;7.27;;;;;;;14.06;100.00;101872.84;5274637;28;20029;-75
2022/05/27 03:30:20;;;;;;;10.20;6.63;;;;;;;13.88;100.00;101845.78;5276448;28;20027;-75
2022/05/27 03:33:19;;;;;;;14.43;7.80;;;;;;;14.01;100.00;101849.44;5275101;28;20028;-75
2022/05/27 03:35:57;;;;;;;10.20;7.70;;;;;;;14.20;100.00;101860.66;5276696;28;20033;-75
2022/05/27 03:38:34;;;;;;;13.40;7.83;;;;;;;14.06;100.00;101872.00;5276472;28;20024;-75
2022/05/27 03:41:20;;;;;;;10.57;7.20;;;;;;;14.09;100.00;101840.19;5275830;28;20020;-75
2022/05/27 03:43:53;;;;;;;11.93;7.90;;;;;;;14.27;100.00;101869.91;5274772;28;20078;-75
2022/05/27 03:46:36;;;;;;;13.70;8.93;;;;;;;14.32;100.00;101882.78;5276482;28;20028;-77
2022/05/27 03:49:10;;;;;;;13.23;9.23;;;;;;;14.03;100.00;101863.34;5276211;28;20021;-76
2022/05/27 03:52:05;;;;;;;11.55;8.77;;;;;;;14.22;100.00;101888.63;5274128;28;20612;-75
2022/05/27 03:54:36;;;;;;;11.43;9.68;;;;;;;14.31;100.00;101894.28;5275692;28;20115;-74
2022/05/27 03:57:08;;;;;;;15.13;8.77;;;;;;;14.26;100.00;101895.38;5274824;28;20147;-75
2022/05/27 03:59:39;;;;;;;14.43;9.83;;;;;;;14.13;100.00;101852.28;5274432;28;20040;-75
2022/05/27 04:02:10;;;;;;;7.97;5.20;;;;;;;14.15;100.00;101872.31;5273384;28;20360;-75
2022/05/27 04:04:42;;;;;;;10.10;5.70;;;;;;;14.32;100.00;101885.41;5275780;28;20373;-74
2022/05/27 04:07:13;;;;;;;7.50;4.40;;;;;;;14.31;100.00;101881.97;5275854;28;20024;-74
2022/05/27 04:09:44;;;;;;;6.73;4.03;;;;;;;14.27;100.00;101881.28;5275485;28;20024;-73
2022/05/27 04:12:16;;;;;;;5.83;3.70;;;;;;;14.20;100.00;101873.81;5274653;28;20033;-74
2022/05/27 04:14:51;;;;;;;6.67;3.70;;;;;;;14.14;100.00;101886.41;5275249;28;20123;-74
2022/05/27 04:17:32;;;;;;;6.53;3.67;;;;;;;14.09;100.00;101866.53;5275097;28;20052;-75
2022/05/27 04:20:09;;;;;;;7.07;3.23;;;;;;;14.12;100.00;101890.09;5273397;28;20035;-75
2022/05/27 04:22:41;;;;;;;6.53;4.10;;;;;;;14.15;100.00;101879.38;5275546;28;20513;-75
2022/05/27 04:25:15;;;;;;;8.33;4.87;;;;;;;14.15;100.00;101882.00;5275159;28;20040;-75
2022/05/27 04:27:46;;;;;;;9.93;5.18;;;;;;;14.24;100.00;101886.72;5274804;28;20646;-75
2022/05/27 04:30:18;;;;;;;8.90;5.40;;;;;;;14.11;100.00;101880.47;5275343;28;20027;-75
2022/05/27 04:32:50;;;;;;;8.60;5.90;;;;;;;13.96;100.00;101862.03;5275290;28;20043;-75
2022/05/27 04:35:22;;;;;;;8.40;5.70;;;;;;;14.23;100.00;101892.94;5273734;28;20024;-75
2022/05/27 04:37:53;;;;;;;9.77;6.40;;;;;;;14.12;100.00;101893.56;5290317;28;20548;-75
2022/05/27 04:40:25;;;;;;;11.60;6.60;;;;;;;14.28;100.00;101892.66;5273733;28;20078;-75
2022/05/27 04:42:57;;;;;;;9.77;6.87;;;;;;;14.22;100.00;101893.88;5272982;28;20051;-75
2022/05/27 04:45:30;;;;;;;11.60;6.63;;;;;;;14.26;100.00;101882.22;5275032;28;20055;-76
2022/05/27 04:48:01;;;;;;;9.23;6.97;;;;;;;14.26;100.00;101894.56;5289886;28;20060;-75
2022/05/27 04:50:33;;;;;;;11.33;7.43;;;;;;;14.32;100.00;101891.56;5274274;28;20499;-75
2022/05/27 04:53:05;;;;;;;11.53;7.30;;;;;;;14.10;100.00;101863.81;5274706;28;20391;-75
2022/05/27 04:55:38;;;;;;;12.30;7.53;;;;;;;14.32;100.00;101895.97;5274704;28;20029;-74
2022/05/27 04:58:11;;;;;;;11.53;7.20;;;;;;;14.37;100.00;101892.13;5273461;28;20523;-75
2022/05/27 05:00:46;;;;;;;11.87;7.77;;;;;;;14.36;100.00;101897.50;5274255;28;20024;-75
2022/05/27 05:03:17;;;;;;;13.47;7.70;;;;;;;14.29;100.00;101883.84;5274075;28;20074;-74
2022/05/27 05:05:48;;;;;;;13.67;8.10;;;;;;;14.33;100.00;101890.59;5274731;28;20029;-74
2022/05/27 05:08:33;;;;;;;18.57;10.27;;;;;;;14.39;100.00;101895.53;5274174;28;20077;-74
2022/05/27 05:11:06;;;;;;;13.53;8.43;;;;;;;14.44;100.00;101899.66;5274212;28;20066;-75
2022/05/27 05:13:38;;;;;;;12.33;7.50;;;;;;;14.50;100.00;101908.03;5274175;28;20411;-75
2022/05/27 05:16:09;;;;;;;11.97;8.30;;;;;;;14.47;100.00;101895.06;5274310;28;20066;-75
2022/05/27 05:18:40;;;;;;;17.47;8.07;;;;;;;14.49;100.00;101898.44;5273702;28;20613;-75
2022/05/27 05:21:12;;;;;;;14.97;8.97;;;;;;;14.57;100.00;101908.56;5274325;28;20420;-75
2022/05/27 05:23:44;;;;;;;15.90;8.57;;;;;;;14.71;100.00;101909.50;5274347;28;20031;-75
2022/05/27 05:26:16;;;;;;;19.93;9.07;;;;;;;14.60;100.00;101912.78;5274399;28;20029;-75
2022/05/27 05:28:47;;;;;;;15.13;8.53;;;;;;;14.62;100.00;101916.16;5273365;28;20016;-75
2022/05/27 05:31:18;;;;;;;18.37;8.60;;;;;;;14.50;100.00;101892.22;5273728;28;20497;-75
2022/05/27 05:33:49;;;;;;;19.77;9.53;;;;;;;14.76;100.00;101928.53;5273987;28;20367;-75
2022/05/27 05:36:21;;;;;;;20.93;10.70;;;;;;;14.76;100.00;101932.03;5273049;28;20024;-75
2022/05/27 05:38:52;;;;;;;15.93;7.90;;;;;;;14.74;100.00;101941.81;5273653;28;20120;-74
2022/05/27 05:41:29;;;;;;;18.93;8.77;;;;;;;14.80;100.00;101935.28;5272512;28;20029;-74
2022/05/27 05:44:01;;;;;;;16.07;7.57;;;;;;;14.79;100.00;101932.75;5272795;28;20032;-74
2022/05/27 05:46:34;;;;;;;15.37;7.43;;;;;;;14.88;100.00;101938.38;5274300;28;20063;-74
2022/05/27 05:49:05;;;;;;;18.53;7.03;;;;;;;14.84;100.00;101936.84;5273626;28;20058;-75
2022/05/27 05:51:37;;;;;;;15.50;6.83;;;;;;;14.95;100.00;101937.97;5274136;28;20028;-75
2022/05/27 05:54:08;;;;;;;15.67;6.37;;;;;;;14.99;100.00;101950.88;5272460;28;20032;-74
2022/05/27 05:56:40;;;;;;;19.17;7.13;;;;;;;15.00;100.00;101952.59;5273840;28;20036;-74
2022/05/27 05:59:12;;;;;;;13.20;7.03;;;;;;;14.97;100.00;101941.38;5273449;28;20285;-74
2022/05/27 06:01:44;;;;;;;16.90;7.20;;;;;;;14.97;100.00;101946.66;5273422;28;20051;-73
2022/05/27 06:04:15;;;;;;;14.43;6.27;;;;;;;14.95;100.00;101943.25;5272673;28;20040;-73
2022/05/27 06:06:47;;;;;;;12.53;5.17;;;;;;;15.09;100.00;101945.03;5273393;28;20060;-74
2022/05/27 06:09:22;;;;;;;17.43;5.93;;;;;;;15.17;100.00;101948.06;5273148;28;20020;-74
2022/05/27 06:11:55;;;;;;;11.97;4.73;;;;;;;15.26;100.00;101948.41;5272785;28;20060;-73
2022/05/27 06:14:27;;;;;;;13.37;4.80;;;;;;;15.22;100.00;101938.06;5271512;28;20097;-73
2022/05/27 06:16:58;;;;;;;18.40;5.87;;;;;;;15.31;99.97;101939.28;5272670;28;20020;-73
2022/05/27 06:19:29;;;;;;;14.43;5.70;;;;;;;15.24;100.00;101938.81;5272798;28;20052;-74
2022/05/27 06:22:00;;;;;;;18.30;4.60;;;;;;;15.36;100.00;101939.84;5273610;28;20063;-74
2022/05/27 06:24:32;;;;;;;13.73;5.80;;;;;;;15.40;99.03;101945.78;5274004;28;20016;-73
2022/05/27 06:27:06;;;;;;;17.50;5.20;;;;;;;15.36;97.07;101946.91;5272134;28;20062;-73
2022/05/27 06:35:17;;;;;;;13.00;4.83;;;;;;;15.52;95.69;101961.75;5274253;28;20029;-74
2022/05/27 06:37:49;;;;;;;10.90;4.30;;;;;;;15.53;94.62;101963.47;5273676;28;20033;-75
2022/05/27 06:40:21;;;;;;;12.93;4.03;;;;;;;15.51;93.78;101957.44;5272831;28;20119;-74
2022/05/27 06:42:52;;;;;;;13.47;3.87;;;;;;;15.61;93.66;101950.63;5274193;28;20111;-74
2022/05/27 06:45:24;;;;;;;12.47;3.77;;;;;;;15.69;92.92;101956.25;5275191;28;20380;-74
2022/05/27 06:47:55;;;;;;;11.27;3.83;;;;;;;15.72;93.40;101958.72;5275271;28;20032;-74
2022/05/27 06:50:27;;;;;;;14.37;4.10;;;;;;;15.80;95.50;101962.66;5276956;28;20025;-74
2022/05/27 06:52:58;;;;;;;11.67;3.43;;;;;;;16.00;89.92;101949.97;5276568;28;20021;-75
2022/05/27 06:55:29;;;;;;;9.43;3.10;;;;;;;16.14;93.27;101962.28;5276659;28;20034;-76
2022/05/27 06:58:01;;;;;;;12.50;3.20;;;;;;;16.26;88.28;101960.63;5257905;28;20052;-74
2022/05/27 07:00:32;;;;;;;9.40;2.97;;;;;;;16.30;87.09;101957.66;5276347;28;20028;-74
2022/05/27 07:03:05;;;;;;;8.57;2.50;;;;;;;16.55;86.99;101969.25;5276061;28;20056;-74
2022/05/27 07:05:37;;;;;;;12.63;3.33;;;;;;;16.68;83.43;101966.63;5276004;28;20071;-74
2022/05/27 07:08:08;;;;;;;14.13;3.37;;;;;;;16.80;79.92;101964.09;5275993;28;20123;-74
2022/05/27 07:10:39;;;;;;;8.70;2.57;;;;;;;16.90;80.50;101959.00;5282691;28;20024;-74
2022/05/27 07:13:12;;;;;;;7.87;2.67;;;;;;;17.24;80.26;101963.75;5277685;28;20060;-74
2022/05/27 07:15:44;;;;;;;7.20;2.80;;;;;;;17.57;77.46;101951.72;5282548;28;20021;-74
2022/05/27 07:18:19;;;;;;;10.70;2.90;;;;;;;17.81;74.77;101936.78;5265774;28;20047;-74
2022/05/27 07:20:50;;;;;;;10.57;3.03;;;;;;;18.25;74.80;101974.22;5279336;28;20020;-75
2022/05/27 07:23:21;;;;;;;11.40;3.97;;;;;;;18.30;70.00;101956.16;5268109;28;20024;-75
2022/05/27 07:25:54;;;;;;;9.90;3.83;;;;;;;18.76;67.05;101972.19;5280881;28;20130;-75
2022/05/27 07:28:26;;;;;;;10.23;2.47;;;;;;;18.93;65.89;101959.41;5264866;28;20017;-75
2022/05/27 07:31:01;;;;;;;9.10;2.77;;;;;;;19.38;63.67;101971.00;5265552;28;20111;-75
2022/05/27 07:33:35;;;;;;;7.47;2.10;;;;;;;19.93;64.04;101964.84;5265396;28;20021;-75
2022/05/27 07:36:07;;;;;;;10.73;2.70;;;;;;;20.04;61.37;101932.03;5273449;28;20025;-75
2022/05/27 07:38:38;;;;;;;13.60;3.35;;;;;;;20.14;62.56;101980.84;5255530;28;20094;-76
2022/05/27 07:41:10;;;;;;;8.07;2.30;;;;;;;20.78;58.68;101977.34;5273865;28;20029;-74
2022/05/27 07:43:42;;;;;;;8.02;2.35;;;;;;;21.10;58.13;101967.56;5274819;28;20024;-75
2022/05/27 07:46:15;;;;;;;9.02;2.50;;;;;;;21.42;56.38;101974.53;5264422;28;20017;-75
2022/05/27 07:48:47;;;;;;;7.72;2.05;;;;;;;21.72;55.71;101962.09;5266558;28;20090;-75
2022/05/27 07:51:18;;;;;;;10.48;3.17;;;;;;;21.72;54.35;101963.91;5274331;28;20025;-75
2022/05/27 07:53:49;;;;;;;7.57;2.50;;;;;;;22.10;52.47;101977.44;5274185;28;20028;-75
2022/05/27 07:56:22;;;;;;;8.65;2.83;;;;;;;22.03;53.47;101977.16;5271092;28;20029;-75
2022/05/27 07:58:54;;;;;;;8.77;2.88;;;;;;;22.40;50.74;101978.25;5273571;28;20029;-75
2022/05/27 08:01:25;;;;;;;10.38;2.85;;;;;;;22.33;52.24;101971.78;5274797;28;20055;-74
2022/05/27 08:03:56;;;;;;;7.13;2.65;;;;;;;22.96;48.46;101990.91;5273670;28;20028;-75
2022/05/27 08:06:27;;;;;;;9.15;3.05;;;;;;;23.24;47.91;101982.91;5258567;28;20060;-74
2022/05/27 08:08:59;;;;;;;7.00;2.17;;;;;;;23.38;47.78;101981.56;5262624;28;20036;-74
2022/05/27 08:11:30;;;;;;;11.32;2.97;;;;;;;23.49;47.75;101972.53;5259103;28;20051;-74
2022/05/27 08:14:02;;;;;;;9.88;2.70;;;;;;;24.32;45.54;101983.16;5263045;28;20147;-74
2022/05/27 08:16:34;;;;;;;8.32;2.92;;;;;;;24.46;44.97;101978.22;5260453;28;20177;-75
2022/05/27 08:19:06;;;;;;;6.03;2.55;;;;;;;23.49;47.41;101993.94;5263323;28;20175;-75
2022/05/27 08:21:37;;;;;;;8.52;3.00;;;;;;;22.54;48.80;101994.78;5263319;28;20036;-74
2022/05/27 08:24:09;;;;;;;10.63;2.70;;;;;;;21.81;50.64;102011.13;5263370;28;20063;-75
2022/05/27 08:26:40;;;;;;;6.60;2.10;;;;;;;21.63;50.44;102000.25;5259119;28;20036;-75
2022/05/27 08:29:11;;;;;;;8.15;2.40;;;;;;;21.61;50.38;102005.72;5263279;28;20233;-75
2022/05/27 08:31:43;;;;;;;6.95;2.22;;;;;;;22.42;49.40;101997.63;5263904;28;20032;-75
2022/05/27 08:39:54;;;;;;;7.13;2.70;;;;;;;24.03;44.08;101994.94;5262824;28;20040;-75
2022/05/27 08:42:43;;;;;;;8.93;2.25;;;;;;;24.89;45.48;101989.00;5261635;28;20472;-75
2022/05/27 08:45:21;;;;;;;10.95;2.70;;;;;;;25.10;42.84;101991.31;5262429;28;20032;-75
2022/05/27 08:47:59;;;;;;;8.10;2.17;;;;;;;24.40;43.25;102001.94;5259181;28;20066;-75
2022/05/27 08:50:47;;;;;;;8.95;2.50;;;;;;;23.87;45.08;102001.84;5263199;28;20029;-75
2022/05/27 08:53:40;;;;;;;9.07;2.55;;;;;;;23.92;45.41;102010.25;5263268;28;20036;-75
2022/05/27 08:59:27;;;;;;;6.97;2.28;;;;;;;23.95;45.95;102006.41;5262015;28;20072;-74
2022/05/27 09:02:26;;;;;;;9.93;2.92;;;;;;;24.95;44.82;101999.13;5261933;28;20067;-74
2022/05/27 09:05:19;;;;;;;9.13;2.60;;;;;;;25.31;43.99;102019.53;5261950;28;20389;-74
2022/05/27 09:08:17;;;;;;;8.40;2.33;;;;;;;25.55;40.88;102015.28;5258863;28;20063;-76
2022/05/27 09:11:03;;;;;;;7.07;1.98;;;;;;;26.02;38.35;101996.09;5261311;28;20032;-74
2022/05/27 09:13:46;;;;;;;9.98;3.13;;;;;;;26.77;36.95;102021.03;5261810;28;20522;-74
2022/05/27 09:16:55;;;;;;;11.67;2.97;;;;;;;27.35;37.13;102014.59;5260196;28;20883;-75
2022/05/27 09:19:37;;;;;;;7.57;2.35;;;;;;;26.93;35.63;102011.25;5262894;28;21137;-74
2022/05/27 09:22:14;;;;;;;8.05;2.35;;;;;;;26.94;35.86;102018.28;5262231;28;20075;-75
2022/05/27 09:25:04;;;;;;;7.88;2.92;;;;;;;27.22;34.11;102025.09;5259922;28;20032;-75
2022/05/27 09:28:03;;;;;;;12.95;3.65;;;;;;;27.36;35.44;102031.59;5258089;28;20028;-75
2022/05/27 09:30:36;;;;;;;7.47;2.30;;;;;;;26.82;33.26;102033.94;5262511;28;20033;-75
2022/05/27 09:33:14;;;;;;;7.63;3.25;;;;;;;26.26;34.65;102034.66;5261348;28;20030;-75
2022/05/27 09:36:01;;;;;;;7.22;2.72;;;;;;;24.91;35.61;102050.50;5262044;28;20050;-75
2022/05/27 09:38:34;;;;;;;9.80;3.33;;;;;;;25.65;33.92;102041.13;5259795;28;20486;-75
2022/05/27 09:41:23;;;;;;;9.00;2.67;;;;;;;25.80;35.77;102042.16;5261868;28;21694;-74
2022/05/27 09:44:19;;;;;;;9.80;2.92;;;;;;;26.66;34.56;102050.94;5262040;28;20837;-75
2022/05/27 09:46:52;;;;;;;7.30;2.50;;;;;;;26.64;32.81;102066.38;5260479;28;20709;-74
2022/05/27 09:49:24;;;;;;;9.63;2.78;;;;;;;26.62;32.40;102053.13;5262530;28;20081;-75
2022/05/27 09:51:55;;;;;;;8.55;2.67;;;;;;;26.53;32.55;102057.66;5262392;28;20040;-75
2022/05/27 09:54:35;;;;;;;7.88;3.05;;;;;;;26.97;32.39;102060.13;5262131;28;20025;-75
2022/05/27 09:57:30;;;;;;;8.60;2.75;;;;;;;27.10;33.09;102075.72;5257165;28;20021;-75
2022/05/27 10:00:04;;;;;;;8.68;2.70;;;;;;;26.34;32.21;102045.41;5260984;28;20459;-76
2022/05/27 10:02:37;;;;;;;9.82;2.85;;;;;;;27.16;32.17;102069.66;5262202;28;20850;-76
2022/05/27 10:05:24;;;;;;;13.48;2.78;;;;;;;28.10;29.70;102067.97;5261566;28;20043;-76
2022/05/27 10:08:00;;;;;;;9.07;2.95;;;;;;;27.50;29.29;102067.66;5258937;28;20392;-76
2022/05/27 10:10:37;;;;;;;9.98;3.40;;;;;;;27.94;29.51;102044.72;5262183;28;20039;-76
2022/05/27 10:13:24;;;;;;;10.63;3.03;;;;;;;28.02;29.58;102074.28;5268147;28;20048;-76
2022/05/27 10:16:11;;;;;;;9.07;2.88;;;;;;;27.73;28.42;102065.06;5269680;28;20123;-77
2022/05/27 10:18:44;;;;;;;7.82;2.67;;;;;;;28.13;26.81;102064.09;5273857;28;20053;-78
2022/05/27 10:21:18;;;;;;;10.52;3.08;;;;;;;27.70;28.60;102051.94;5276088;28;20452;-78
2022/05/27 10:23:54;;;;;;;8.27;2.60;;;;;;;28.66;27.98;102071.41;5273358;28;20028;-77
2022/05/27 10:26:29;;;;;;;10.35;2.80;;;;;;;28.31;26.76;102060.25;5269686;28;21063;-77
2022/05/27 10:29:10;;;;;;;7.97;2.63;;;;;;;29.25;26.09;102068.09;5274657;28;20028;-76
2022/05/27 10:31:50;;;;;;;10.10;3.22;;;;;;;29.82;26.51;102054.84;5278264;28;20036;-75
2022/05/27 10:34:41;;;;;;;7.25;2.75;;;;;;;29.46;27.42;102062.75;5276407;28;20065;-76
2022/05/27 10:37:28;;;;;;;9.68;2.50;;;;;;;27.83;28.38;102070.19;5272258;28;20141;-75
2022/05/27 10:40:20;;;;;;;9.07;2.85;;;;;;;28.90;27.48;102074.88;5273100;28;20025;-75
2022/05/27 10:43:03;;;;;;;11.27;3.25;;;;;;;29.59;25.87;102059.38;5273092;28;20024;-75
2022/05/27 10:45:39;;;;;;;9.43;2.63;;;;;;;29.32;25.78;102077.09;5275613;28;20036;-76
2022/05/27 10:48:30;;;;;;;10.65;2.90;;;;;;;29.91;27.04;102079.84;5273222;28;20020;-75
2022/05/27 10:51:04;;;;;;;12.38;3.47;;;;;;;28.71;25.83;102076.25;5275752;28;20107;-75
2022/05/27 10:53:54;;;;;;;6.78;2.60;;;;;;;28.96;27.34;102073.28;5275186;28;20050;-74
2022/05/27 10:56:40;;;;;;;9.75;2.60;;;;;;;28.77;26.55;102069.25;5271246;28;20040;-74
2022/05/27 11:02:30;;;;;;;11.02;3.45;;;;;;;27.95;27.86;102070.63;5272155;28;20476;-74
2022/05/27 11:05:10;;;;;;;9.48;2.63;;;;;;;27.99;25.45;102069.25;5272060;28;20032;-74
2022/05/27 11:08:22;;;;;;;9.13;2.97;;;;;;;29.08;25.79;102071.00;5271740;28;20025;-76
2022/05/27 11:11:25;;;;;;;7.78;2.35;;;;;;;28.58;24.44;102076.88;5246170;28;20045;-76
2022/05/27 11:17:14;;;;;;;7.70;2.60;;;;;;;29.13;25.67;102073.13;5269795;28;20075;-75
2022/05/27 11:20:11;;;;;;;9.80;2.58;;;;;;;28.99;25.23;102079.16;5274685;28;20020;-75
2022/05/27 11:22:58;;;;;;;8.85;3.10;;;;;;;27.79;27.19;102068.88;5274979;28;20452;-75
2022/05/27 11:25:35;;;;;;;9.00;3.13;;;;;;;28.41;25.81;102071.66;5274459;28;20032;-76
2022/05/27 11:28:26;;;;;;;8.45;2.60;;;;;;;28.14;26.63;102050.44;5275702;28;20043;-76
2022/05/27 11:31:25;;;;;;;8.00;2.78;;;;;;;27.76;28.50;102062.00;5259632;28;20052;-76
2022/05/27 11:34:14;;;;;;;9.15;2.80;;;;;;;27.99;26.65;102063.88;5260192;28;20037;-76
2022/05/27 11:37:18;;;;;;;8.02;2.72;;;;;;;27.68;27.33;102062.03;5272233;28;20033;-76
2022/05/27 11:40:17;;;;;;;9.32;3.75;;;;;;;26.99;28.85;102077.75;5274191;28;20017;-76
2022/05/27 11:43:11;;;;;;;9.77;3.10;;;;;;;26.65;29.33;102074.28;5273396;28;20538;-77
2022/05/27 11:45:57;;;;;;;9.38;3.08;;;;;;;27.11;28.25;102074.69;5274863;28;20039;-77
2022/05/27 11:48:51;;;;;;;13.75;3.42;;;;;;;26.56;29.78;102084.22;5273955;28;20648;-77
2022/05/27 11:51:41;;;;;;;9.48;3.30;;;;;;;26.54;29.15;102080.00;5272299;28;20050;-76
2022/05/27 11:54:27;;;;;;;11.55;2.63;;;;;;;26.46;29.22;102091.59;5274569;28;20515;-74
2022/05/27 11:57:04;;;;;;;12.68;2.78;;;;;;;26.78;28.48;102087.19;5271715;28;20431;-76
2022/05/27 11:59:42;;;;;;;9.40;2.83;;;;;;;25.90;29.11;102055.47;5274017;28;20020;-76
2022/05/27 12:02:28;;;;;;;10.05;2.90;;;;;;;26.47;27.81;102077.16;5274083;28;20129;-76
2022/05/27 12:05:14;;;;;;;7.18;2.05;;;;;;;26.65;26.83;102094.94;5266284;28;20151;-76
2022/05/27 12:07:55;;;;;;;9.77;3.38;;;;;;;26.41;27.51;102073.28;5271557;28;20039;-76
2022/05/27 12:10:47;;;;;;;9.75;2.83;;;;;;;26.46;28.27;102096.97;5267490;28;20020;-75
2022/05/27 12:13:31;;;;;;;11.15;3.10;;;;;;;25.95;28.20;102055.81;5267236;28;20375;-76
2022/05/27 12:16:31;;;;;;;16.23;3.70;;;;;;;26.49;27.83;102072.47;5270697;28;20764;-76
2022/05/27 12:19:14;;;;;;;12.50;3.75;;;;;;;25.81;29.16;102089.47;5269732;28;20048;-75
2022/05/27 12:21:49;;;;;;;16.27;7.65;;;;;;;25.57;28.91;102099.06;5272759;28;20489;-76
2022/05/27 12:24:28;;;;;;;8.48;3.13;;;;;;;25.52;28.75;102085.31;5273956;28;20573;-76
2022/05/27 12:27:03;;;;;;;9.77;2.90;;;;;;;25.81;28.76;102083.25;5271021;28;20036;-76
2022/05/27 12:29:35;;;;;;;10.65;2.53;;;;;;;25.54;29.09;102087.84;5273459;28;20104;-76
2022/05/27 12:32:08;;;;;;;12.38;3.05;;;;;;;25.22;29.20;102066.91;5288534;28;20031;-76
2022/05/27 12:34:43;;;;;;;9.37;3.13;;;;;;;25.68;29.18;102099.81;5270758;28;20012;-76
2022/05/27 12:37:25;;;;;;;7.50;2.47;;;;;;;24.84;30.75;102088.63;5271637;28;20036;-76
2022/05/27 12:40:18;;;;;;;9.10;2.83;;;;;;;25.17;30.28;102097.91;5264071;28;20500;-76